DAL1622 KJFK-TJSJ
Flight info
| Callsign | DAL1622 |
|---|---|
| Flight time | 3h 15m |
| Altitude | 36000 |
| Route | DCT SHIPP Y489 GMENN/N0450F360 Y489 BEHHR/M078F360 Y489 RESQU/M078F350 DCT SKPPR L455 TASNI/M078F370 L455 KINCH/N0453F370 L455 LENNT M423 PLING RTE7 SAALR DCT |
| Aircraft | B739/M-V/N |
Departure
| Time | 2026-05-06 23:06 |
|---|---|
| Airport | John F. Kennedy International Airport (KJFK) |
Arrival
| Time | 2026-05-07 02:22 |
|---|---|
| Airport | Luis Munoz Marin International Airport (TJSJ) |
| Time | Latitude | Longitude | Altitude | Speed | Heading |
|---|---|---|---|---|---|
| 2026-05-06 22:37 | 40.64202 | -73.77658 | 24 ft | 0 kts | 292° |
| 2026-05-06 22:52 | 40.64202 | -73.77657 | 22 ft | 0 kts | 292° |
| 2026-05-06 22:56 | 40.64200 | -73.77652 | 24 ft | 3 kts | 292° |
| 2026-05-06 22:56 | 40.64190 | -73.77619 | 24 ft | 4 kts | 288° |
| 2026-05-06 22:56 | 40.64182 | -73.77585 | 25 ft | 4 kts | 291° |
| 2026-05-06 22:56 | 40.64173 | -73.77559 | 27 ft | 4 kts | 302° |
| 2026-05-06 22:57 | 40.64156 | -73.77532 | 26 ft | 4 kts | 322° |
| 2026-05-06 22:57 | 40.64134 | -73.77513 | 25 ft | 4 kts | 329° |
| 2026-05-06 22:57 | 40.64113 | -73.77498 | 25 ft | 4 kts | 355° |
| 2026-05-06 22:57 | 40.64088 | -73.77505 | 24 ft | 4 kts | 28° |
| 2026-05-06 22:58 | 40.64066 | -73.77521 | 24 ft | 4 kts | 32° |
| 2026-05-06 22:58 | 40.64044 | -73.77541 | 22 ft | 4 kts | 42° |
| 2026-05-06 22:58 | 40.64026 | -73.77567 | 26 ft | 4 kts | 53° |
| 2026-05-06 22:58 | 40.64012 | -73.77594 | 24 ft | 2 kts | 61° |
| 2026-05-06 22:59 | 40.64011 | -73.77595 | 24 ft | 1 kts | 61° |
| 2026-05-06 23:00 | 40.64028 | -73.77562 | 25 ft | 10 kts | 50° |
| 2026-05-06 23:01 | 40.64082 | -73.77511 | 22 ft | 6 kts | 34° |
| 2026-05-06 23:01 | 40.64089 | -73.77502 | 22 ft | 0 kts | 53° |
| 2026-05-06 23:02 | 40.64090 | -73.77471 | 22 ft | 9 kts | 106° |
| 2026-05-06 23:02 | 40.64030 | -73.77358 | 21 ft | 18 kts | 120° |
| 2026-05-06 23:02 | 40.64091 | -73.77251 | 24 ft | 16 kts | 28° |
| 2026-05-06 23:02 | 40.64191 | -73.77174 | 24 ft | 19 kts | 31° |
| 2026-05-06 23:03 | 40.64333 | -73.77062 | 22 ft | 27 kts | 31° |
| 2026-05-06 23:03 | 40.64511 | -73.76980 | 18 ft | 27 kts | 17° |
| 2026-05-06 23:03 | 40.64620 | -73.76902 | 17 ft | 27 kts | 30° |
| 2026-05-06 23:03 | 40.64774 | -73.76781 | 19 ft | 25 kts | 30° |
| 2026-05-06 23:04 | 40.64858 | -73.76716 | 22 ft | 12 kts | 30° |
| 2026-05-06 23:04 | 40.64936 | -73.76655 | 20 ft | 15 kts | 31° |
| 2026-05-06 23:04 | 40.65034 | -73.76579 | 21 ft | 17 kts | 31° |
| 2026-05-06 23:04 | 40.65096 | -73.76470 | 21 ft | 16 kts | 105° |
| 2026-05-06 23:05 | 40.65027 | -73.76365 | 22 ft | 16 kts | 178° |
| 2026-05-06 23:05 | 40.64968 | -73.76397 | 21 ft | 0 kts | 211° |
| 2026-05-06 23:05 | 40.64935 | -73.76423 | 21 ft | 29 kts | 211° |
| 2026-05-06 23:06 | 40.64514 | -73.76752 | 19 ft | 108 kts | 211° |
| 2026-05-06 23:06 | 40.63683 | -73.77398 | 46 ft | 165 kts | 210° |
| 2026-05-06 23:06 | 40.62654 | -73.78224 | 580 ft | 178 kts | 212° |
| 2026-05-06 23:06 | 40.61559 | -73.79129 | 1233 ft | 191 kts | 213° |
| 2026-05-06 23:07 | 40.60427 | -73.79917 | 2137 ft | 191 kts | 213° |
| 2026-05-06 23:07 | 40.59208 | -73.80750 | 2668 ft | 204 kts | 210° |
| 2026-05-06 23:07 | 40.57813 | -73.81541 | 2894 ft | 233 kts | 205° |
| 2026-05-06 23:07 | 40.56127 | -73.81800 | 3335 ft | 260 kts | 177° |
| 2026-05-06 23:08 | 40.54411 | -73.80856 | 4029 ft | 280 kts | 148° |
| 2026-05-06 23:08 | 40.53129 | -73.78906 | 4694 ft | 286 kts | 121° |
| 2026-05-06 23:08 | 40.52584 | -73.76333 | 5220 ft | 303 kts | 94° |
| 2026-05-06 23:08 | 40.52602 | -73.73545 | 6109 ft | 307 kts | 88° |
| 2026-05-06 23:09 | 40.52707 | -73.70721 | 6934 ft | 312 kts | 88° |
| 2026-05-06 23:09 | 40.52835 | -73.67855 | 7711 ft | 318 kts | 88° |
| 2026-05-06 23:09 | 40.52976 | -73.64911 | 8425 ft | 326 kts | 88° |
| 2026-05-06 23:09 | 40.53131 | -73.61930 | 9302 ft | 329 kts | 89° |
| 2026-05-06 23:10 | 40.52895 | -73.58941 | 9871 ft | 335 kts | 115° |
| 2026-05-06 23:10 | 40.51692 | -73.56284 | 10083 ft | 347 kts | 136° |
| 2026-05-06 23:10 | 40.50086 | -73.53815 | 10517 ft | 361 kts | 137° |
| 2026-05-06 23:10 | 40.48439 | -73.51291 | 11186 ft | 368 kts | 137° |
| 2026-05-06 23:11 | 40.46802 | -73.48681 | 11957 ft | 372 kts | 136° |
| 2026-05-06 23:11 | 40.45189 | -73.46006 | 12703 ft | 376 kts | 135° |
| 2026-05-06 23:11 | 40.43579 | -73.43263 | 13430 ft | 381 kts | 134° |
| 2026-05-06 23:11 | 40.41967 | -73.40476 | 14092 ft | 386 kts | 134° |
| 2026-05-06 23:12 | 40.40340 | -73.37645 | 14710 ft | 391 kts | 134° |
| 2026-05-06 23:12 | 40.38694 | -73.34776 | 15343 ft | 396 kts | 134° |
| 2026-05-06 23:12 | 40.37028 | -73.31874 | 15969 ft | 400 kts | 134° |
| 2026-05-06 23:12 | 40.35342 | -73.28942 | 16583 ft | 404 kts | 134° |
| 2026-05-06 23:13 | 40.33646 | -73.26000 | 17269 ft | 407 kts | 134° |
| 2026-05-06 23:13 | 40.31971 | -73.22975 | 17822 ft | 414 kts | 130° |
| 2026-05-06 23:13 | 40.30381 | -73.19800 | 18381 ft | 420 kts | 128° |
| 2026-05-06 23:13 | 40.28809 | -73.16548 | 18831 ft | 426 kts | 128° |
| 2026-05-06 23:14 | 40.27205 | -73.13251 | 19311 ft | 432 kts | 129° |
| 2026-05-06 23:14 | 40.25561 | -73.09927 | 19783 ft | 438 kts | 129° |
| 2026-05-06 23:14 | 40.23888 | -73.06570 | 20277 ft | 443 kts | 129° |
| 2026-05-06 23:14 | 40.22191 | -73.03174 | 20745 ft | 448 kts | 129° |
| 2026-05-06 23:15 | 40.20475 | -72.99742 | 21196 ft | 454 kts | 129° |
| 2026-05-06 23:15 | 40.18735 | -72.96262 | 21649 ft | 459 kts | 129° |
| 2026-05-06 23:15 | 40.16977 | -72.92744 | 22104 ft | 464 kts | 129° |
| 2026-05-06 23:15 | 40.15219 | -72.89225 | 22574 ft | 468 kts | 129° |
| 2026-05-06 23:16 | 40.13412 | -72.85614 | 22993 ft | 474 kts | 129° |
| 2026-05-06 23:16 | 40.11591 | -72.81984 | 23047 ft | 481 kts | 129° |
| 2026-05-06 23:16 | 40.09770 | -72.78337 | 23059 ft | 479 kts | 128° |
| 2026-05-06 23:16 | 40.08042 | -72.74640 | 23052 ft | 477 kts | 126° |
| 2026-05-06 23:17 | 40.06367 | -72.70891 | 23057 ft | 477 kts | 126° |
| 2026-05-06 23:17 | 40.04702 | -72.67130 | 23070 ft | 479 kts | 126° |
| 2026-05-06 23:17 | 40.03022 | -72.63366 | 23082 ft | 480 kts | 126° |
| 2026-05-06 23:17 | 40.01327 | -72.59613 | 23228 ft | 484 kts | 126° |
| 2026-05-06 23:18 | 39.99615 | -72.55848 | 23880 ft | 480 kts | 126° |
| 2026-05-06 23:18 | 39.97908 | -72.52106 | 24418 ft | 480 kts | 127° |
| 2026-05-06 23:18 | 39.96197 | -72.48352 | 24804 ft | 485 kts | 126° |
| 2026-05-06 23:18 | 39.94495 | -72.44530 | 25168 ft | 490 kts | 126° |
| 2026-05-06 23:19 | 39.92801 | -72.40663 | 25563 ft | 493 kts | 126° |
| 2026-05-06 23:19 | 39.91104 | -72.36774 | 25988 ft | 496 kts | 126° |
| 2026-05-06 23:19 | 39.89395 | -72.32862 | 26422 ft | 498 kts | 126° |
| 2026-05-06 23:19 | 39.87680 | -72.28951 | 26958 ft | 497 kts | 126° |
| 2026-05-06 23:20 | 39.85965 | -72.25053 | 27530 ft | 495 kts | 126° |
| 2026-05-06 23:20 | 39.84239 | -72.21198 | 28136 ft | 490 kts | 130° |
| 2026-05-06 23:20 | 39.82096 | -72.17855 | 28459 ft | 476 kts | 148° |
| 2026-05-06 23:20 | 39.79388 | -72.15513 | 28756 ft | 461 kts | 164° |
| 2026-05-06 23:21 | 39.76449 | -72.14045 | 29132 ft | 445 kts | 177° |
| 2026-05-06 23:21 | 39.73447 | -72.13181 | 29622 ft | 442 kts | 179° |
| 2026-05-06 23:21 | 39.70441 | -72.12302 | 30031 ft | 444 kts | 178° |
| 2026-05-06 23:21 | 39.67426 | -72.11396 | 30417 ft | 445 kts | 178° |
| 2026-05-06 23:22 | 39.64414 | -72.10469 | 30864 ft | 444 kts | 178° |
| 2026-05-06 23:22 | 39.61419 | -72.09535 | 31336 ft | 443 kts | 178° |
| 2026-05-06 23:22 | 39.58424 | -72.08597 | 31756 ft | 443 kts | 178° |
| 2026-05-06 23:22 | 39.55426 | -72.07658 | 32139 ft | 443 kts | 178° |
| 2026-05-06 23:23 | 39.52430 | -72.06720 | 32530 ft | 443 kts | 178° |
| 2026-05-06 23:23 | 39.49442 | -72.05785 | 32907 ft | 442 kts | 179° |
| 2026-05-06 23:23 | 39.46452 | -72.04852 | 33256 ft | 443 kts | 179° |
| 2026-05-06 23:23 | 39.43456 | -72.03919 | 33609 ft | 443 kts | 179° |
| 2026-05-06 23:24 | 39.40463 | -72.02987 | 34001 ft | 442 kts | 179° |
| 2026-05-06 23:24 | 39.37479 | -72.02058 | 34324 ft | 441 kts | 179° |
| 2026-05-06 23:24 | 39.34487 | -72.01128 | 34607 ft | 442 kts | 179° |
| 2026-05-06 23:24 | 39.31501 | -72.00202 | 34884 ft | 442 kts | 179° |
| 2026-05-06 23:25 | 39.28549 | -71.99286 | 35172 ft | 442 kts | 179° |
| 2026-05-06 23:25 | 39.25522 | -71.98348 | 35457 ft | 442 kts | 179° |
| 2026-05-06 23:25 | 39.22571 | -71.97435 | 35731 ft | 442 kts | 180° |
| 2026-05-06 23:25 | 39.19581 | -71.96510 | 35999 ft | 442 kts | 180° |
| 2026-05-06 23:26 | 39.16596 | -71.95587 | 36260 ft | 442 kts | 180° |
| 2026-05-06 23:26 | 39.10547 | -71.93731 | 36384 ft | 452 kts | 180° |
| 2026-05-06 23:27 | 39.04357 | -71.91835 | 36447 ft | 463 kts | 179° |
| 2026-05-06 23:27 | 38.98023 | -71.89889 | 36558 ft | 472 kts | 178° |
| 2026-05-06 23:27 | 38.94824 | -71.88904 | 36704 ft | 475 kts | 178° |
| 2026-05-06 23:28 | 38.91614 | -71.87912 | 36939 ft | 474 kts | 178° |
| 2026-05-06 23:28 | 38.85167 | -71.85928 | 36969 ft | 477 kts | 178° |
| 2026-05-06 23:29 | 38.78747 | -71.83953 | 36961 ft | 472 kts | 178° |
| 2026-05-06 23:29 | 38.72358 | -71.82002 | 36971 ft | 473 kts | 178° |
| 2026-05-06 23:30 | 38.65950 | -71.80053 | 36978 ft | 474 kts | 178° |
| 2026-05-06 23:30 | 38.59534 | -71.78103 | 36981 ft | 474 kts | 178° |
| 2026-05-06 23:31 | 38.53100 | -71.76151 | 36979 ft | 476 kts | 178° |
| 2026-05-06 23:31 | 38.46653 | -71.74197 | 36992 ft | 477 kts | 178° |
| 2026-05-06 23:32 | 38.40180 | -71.72239 | 36990 ft | 479 kts | 178° |
| 2026-05-06 23:32 | 38.33691 | -71.70279 | 36970 ft | 480 kts | 177° |
| 2026-05-06 23:33 | 38.27184 | -71.68317 | 36997 ft | 481 kts | 177° |
| 2026-05-06 23:33 | 38.20656 | -71.66353 | 37006 ft | 483 kts | 177° |
| 2026-05-06 23:34 | 38.14114 | -71.64389 | 37003 ft | 483 kts | 177° |
| 2026-05-06 23:34 | 38.07607 | -71.62432 | 36998 ft | 477 kts | 176° |
| 2026-05-06 23:35 | 38.01169 | -71.60508 | 37022 ft | 482 kts | 177° |
| 2026-05-06 23:35 | 37.94590 | -71.58553 | 37014 ft | 487 kts | 176° |
| 2026-05-06 23:36 | 37.87989 | -71.56582 | 36985 ft | 488 kts | 176° |
| 2026-05-06 23:36 | 37.81377 | -71.54610 | 37006 ft | 488 kts | 176° |
| 2026-05-06 23:37 | 37.74767 | -71.52646 | 37020 ft | 488 kts | 176° |
| 2026-05-06 23:37 | 37.68147 | -71.50683 | 37024 ft | 489 kts | 176° |
| 2026-05-06 23:38 | 37.61518 | -71.48722 | 37008 ft | 490 kts | 175° |
| 2026-05-06 23:38 | 37.54884 | -71.46761 | 37023 ft | 490 kts | 175° |
| 2026-05-06 23:39 | 37.48240 | -71.44743 | 37027 ft | 495 kts | 171° |
| 2026-05-06 23:39 | 37.41805 | -71.41304 | 37036 ft | 506 kts | 161° |
| 2026-05-06 23:40 | 37.35460 | -71.37421 | 37033 ft | 507 kts | 160° |
| 2026-05-06 23:40 | 37.29105 | -71.33569 | 37037 ft | 507 kts | 161° |
| 2026-05-06 23:41 | 37.22719 | -71.29773 | 37046 ft | 508 kts | 161° |
| 2026-05-06 23:41 | 37.16321 | -71.26002 | 37056 ft | 508 kts | 161° |
| 2026-05-06 23:42 | 37.09919 | -71.22239 | 37053 ft | 508 kts | 161° |
| 2026-05-06 23:42 | 37.03514 | -71.18477 | 37054 ft | 508 kts | 161° |
| 2026-05-06 23:43 | 36.97112 | -71.14721 | 37060 ft | 508 kts | 161° |
| 2026-05-06 23:43 | 36.90711 | -71.10972 | 37065 ft | 508 kts | 161° |
| 2026-05-06 23:44 | 36.84319 | -71.07236 | 37064 ft | 507 kts | 161° |
| 2026-05-06 23:44 | 36.77926 | -71.03507 | 37073 ft | 507 kts | 161° |
| 2026-05-06 23:45 | 36.71538 | -70.99788 | 37078 ft | 506 kts | 161° |
| 2026-05-06 23:45 | 36.65160 | -70.96081 | 37079 ft | 506 kts | 161° |
| 2026-05-06 23:46 | 36.58784 | -70.92381 | 37081 ft | 505 kts | 161° |
| 2026-05-06 23:46 | 36.52414 | -70.88693 | 37089 ft | 505 kts | 161° |
| 2026-05-06 23:47 | 36.46041 | -70.85012 | 37089 ft | 506 kts | 160° |
| 2026-05-06 23:47 | 36.40731 | -70.81948 | 37105 ft | 507 kts | 160° |
| 2026-05-06 23:48 | 36.34325 | -70.78257 | 37098 ft | 509 kts | 160° |
| 2026-05-06 23:48 | 36.27895 | -70.74560 | 37110 ft | 510 kts | 160° |
| 2026-05-06 23:49 | 36.21433 | -70.70851 | 37112 ft | 512 kts | 160° |
| 2026-05-06 23:49 | 36.14953 | -70.67138 | 37110 ft | 514 kts | 160° |
| 2026-05-06 23:50 | 36.08456 | -70.63423 | 37100 ft | 515 kts | 160° |
| 2026-05-06 23:50 | 35.98694 | -70.57851 | 37121 ft | 516 kts | 160° |
| 2026-05-06 23:51 | 35.92177 | -70.54141 | 37119 ft | 516 kts | 160° |
| 2026-05-06 23:51 | 35.85707 | -70.50463 | 37123 ft | 516 kts | 159° |
| 2026-05-06 23:52 | 35.79189 | -70.46764 | 37129 ft | 515 kts | 159° |
| 2026-05-06 23:52 | 35.72519 | -70.43800 | 37130 ft | 505 kts | 173° |
| 2026-05-06 23:53 | 35.65657 | -70.42034 | 37131 ft | 503 kts | 174° |
| 2026-05-06 23:53 | 35.58794 | -70.40309 | 37111 ft | 503 kts | 174° |
| 2026-05-06 23:54 | 35.51942 | -70.38527 | 37134 ft | 503 kts | 173° |
| 2026-05-06 23:54 | 35.45093 | -70.36712 | 37137 ft | 504 kts | 173° |
| 2026-05-06 23:55 | 35.38238 | -70.34890 | 37143 ft | 504 kts | 173° |
| 2026-05-06 23:55 | 35.31369 | -70.33070 | 37142 ft | 505 kts | 173° |
| 2026-05-06 23:56 | 35.24491 | -70.31254 | 37147 ft | 507 kts | 173° |
| 2026-05-06 23:56 | 35.17585 | -70.29434 | 37144 ft | 508 kts | 173° |
| 2026-05-06 23:57 | 35.10663 | -70.27613 | 37151 ft | 510 kts | 173° |
| 2026-05-06 23:57 | 35.03708 | -70.25786 | 37141 ft | 511 kts | 173° |
| 2026-05-06 23:58 | 34.96742 | -70.23959 | 37154 ft | 513 kts | 173° |
| 2026-05-06 23:58 | 34.89755 | -70.22130 | 37154 ft | 514 kts | 173° |
| 2026-05-06 23:59 | 34.82755 | -70.20301 | 37133 ft | 515 kts | 173° |
| 2026-05-06 23:59 | 34.75758 | -70.18477 | 37152 ft | 514 kts | 172° |
| 2026-05-07 00:00 | 34.68769 | -70.16655 | 37164 ft | 513 kts | 173° |
| 2026-05-07 00:00 | 34.61787 | -70.14839 | 37155 ft | 513 kts | 173° |
| 2026-05-07 00:01 | 34.54822 | -70.13032 | 37147 ft | 511 kts | 173° |
| 2026-05-07 00:01 | 34.47913 | -70.11242 | 37157 ft | 510 kts | 173° |
| 2026-05-07 00:02 | 34.40976 | -70.09448 | 37158 ft | 510 kts | 173° |
| 2026-05-07 00:02 | 34.34038 | -70.07657 | 37158 ft | 510 kts | 173° |
| 2026-05-07 00:03 | 34.27101 | -70.05869 | 37164 ft | 510 kts | 173° |
| 2026-05-07 00:03 | 34.20166 | -70.04085 | 37164 ft | 510 kts | 173° |
| 2026-05-07 00:04 | 34.13221 | -70.02301 | 37164 ft | 510 kts | 173° |
| 2026-05-07 00:04 | 34.06275 | -70.00520 | 37142 ft | 511 kts | 172° |
| 2026-05-07 00:05 | 33.99321 | -69.98740 | 37164 ft | 511 kts | 173° |
| 2026-05-07 00:05 | 33.92353 | -69.96959 | 37172 ft | 512 kts | 173° |
| 2026-05-07 00:06 | 33.85376 | -69.95179 | 37169 ft | 513 kts | 172° |
| 2026-05-07 00:06 | 33.78376 | -69.93395 | 37162 ft | 514 kts | 172° |
| 2026-05-07 00:07 | 33.71374 | -69.91614 | 37174 ft | 515 kts | 172° |
| 2026-05-07 00:07 | 33.64359 | -69.89833 | 37172 ft | 516 kts | 172° |
| 2026-05-07 00:08 | 33.57332 | -69.88052 | 37171 ft | 516 kts | 172° |
| 2026-05-07 00:08 | 33.50348 | -69.86284 | 37176 ft | 516 kts | 172° |
| 2026-05-07 00:09 | 33.43276 | -69.84498 | 37176 ft | 516 kts | 172° |
| 2026-05-07 00:09 | 33.36241 | -69.82722 | 37175 ft | 516 kts | 172° |
| 2026-05-07 00:10 | 33.29209 | -69.80951 | 37155 ft | 516 kts | 172° |
| 2026-05-07 00:10 | 33.22232 | -69.79202 | 37176 ft | 516 kts | 172° |
| 2026-05-07 00:11 | 33.15208 | -69.77444 | 37180 ft | 516 kts | 172° |
| 2026-05-07 00:11 | 33.08188 | -69.75690 | 37178 ft | 516 kts | 172° |
| 2026-05-07 00:12 | 33.01160 | -69.73936 | 37179 ft | 516 kts | 172° |
| 2026-05-07 00:12 | 32.94139 | -69.72186 | 37182 ft | 516 kts | 172° |
| 2026-05-07 00:13 | 32.87109 | -69.70437 | 37183 ft | 516 kts | 172° |
| 2026-05-07 00:13 | 32.80076 | -69.68690 | 37179 ft | 516 kts | 172° |
| 2026-05-07 00:14 | 32.73041 | -69.66945 | 37173 ft | 516 kts | 172° |
| 2026-05-07 00:14 | 32.66007 | -69.65203 | 37182 ft | 517 kts | 172° |
| 2026-05-07 00:15 | 32.58963 | -69.63462 | 37183 ft | 517 kts | 172° |
| 2026-05-07 00:15 | 32.51916 | -69.61723 | 37184 ft | 518 kts | 172° |
| 2026-05-07 00:16 | 32.44859 | -69.59984 | 37181 ft | 518 kts | 172° |
| 2026-05-07 00:16 | 32.37803 | -69.58248 | 37184 ft | 518 kts | 172° |
| 2026-05-07 00:17 | 32.30738 | -69.56513 | 37185 ft | 519 kts | 172° |
| 2026-05-07 00:17 | 32.23666 | -69.54778 | 37155 ft | 519 kts | 171° |
| 2026-05-07 00:18 | 32.16652 | -69.53060 | 37174 ft | 518 kts | 171° |
| 2026-05-07 00:18 | 32.09585 | -69.51335 | 37183 ft | 519 kts | 171° |
| 2026-05-07 00:19 | 32.02518 | -69.49609 | 37182 ft | 519 kts | 171° |
| 2026-05-07 00:19 | 31.95451 | -69.47886 | 37164 ft | 519 kts | 171° |
| 2026-05-07 00:20 | 31.88376 | -69.46164 | 37175 ft | 519 kts | 171° |
| 2026-05-07 00:20 | 31.81313 | -69.44448 | 37180 ft | 518 kts | 171° |
| 2026-05-07 00:21 | 31.74246 | -69.42734 | 37180 ft | 518 kts | 171° |
| 2026-05-07 00:21 | 31.67182 | -69.41024 | 37185 ft | 518 kts | 171° |
| 2026-05-07 00:22 | 31.60118 | -69.39316 | 37183 ft | 518 kts | 171° |
| 2026-05-07 00:22 | 31.53048 | -69.37609 | 37186 ft | 518 kts | 171° |
| 2026-05-07 00:23 | 31.45984 | -69.35906 | 37188 ft | 518 kts | 171° |
| 2026-05-07 00:23 | 31.38919 | -69.34205 | 37174 ft | 518 kts | 171° |
| 2026-05-07 00:24 | 31.31857 | -69.32508 | 37178 ft | 518 kts | 171° |
| 2026-05-07 00:24 | 31.24797 | -69.30814 | 37189 ft | 518 kts | 171° |
| 2026-05-07 00:25 | 31.17737 | -69.29122 | 37185 ft | 518 kts | 171° |
| 2026-05-07 00:25 | 31.10681 | -69.27434 | 37177 ft | 517 kts | 171° |
| 2026-05-07 00:26 | 31.03628 | -69.25749 | 37186 ft | 517 kts | 171° |
| 2026-05-07 00:26 | 30.96574 | -69.24067 | 37182 ft | 517 kts | 171° |
| 2026-05-07 00:27 | 30.89524 | -69.22388 | 37171 ft | 517 kts | 171° |
| 2026-05-07 00:27 | 30.82472 | -69.20711 | 37181 ft | 517 kts | 171° |
| 2026-05-07 00:28 | 30.75421 | -69.19037 | 37195 ft | 517 kts | 170° |
| 2026-05-07 00:28 | 30.68370 | -69.17366 | 37182 ft | 517 kts | 170° |
| 2026-05-07 00:29 | 30.61322 | -69.15696 | 37167 ft | 517 kts | 170° |
| 2026-05-07 00:30 | 30.47221 | -69.12364 | 37181 ft | 517 kts | 170° |
| 2026-05-07 00:30 | 30.40178 | -69.10703 | 37182 ft | 517 kts | 170° |
| 2026-05-07 00:31 | 30.33134 | -69.09045 | 37167 ft | 517 kts | 170° |
| 2026-05-07 00:31 | 30.26133 | -69.07399 | 37181 ft | 516 kts | 170° |
| 2026-05-07 00:32 | 30.19096 | -69.05748 | 37183 ft | 516 kts | 170° |
| 2026-05-07 00:32 | 30.12013 | -69.04088 | 37182 ft | 516 kts | 170° |
| 2026-05-07 00:33 | 30.05017 | -69.02450 | 37172 ft | 516 kts | 170° |
| 2026-05-07 00:33 | 29.97987 | -69.00807 | 37182 ft | 516 kts | 170° |
| 2026-05-07 00:34 | 29.90946 | -68.99164 | 37180 ft | 516 kts | 170° |
| 2026-05-07 00:34 | 29.83913 | -68.97525 | 37180 ft | 516 kts | 170° |
| 2026-05-07 00:35 | 29.76874 | -68.95887 | 37166 ft | 516 kts | 170° |
| 2026-05-07 00:35 | 29.69837 | -68.94252 | 37180 ft | 516 kts | 170° |
| 2026-05-07 00:36 | 29.63988 | -68.92894 | 37180 ft | 516 kts | 170° |
| 2026-05-07 00:36 | 29.56954 | -68.91264 | 37180 ft | 516 kts | 170° |
| 2026-05-07 00:37 | 29.49912 | -68.89634 | 37171 ft | 516 kts | 170° |
| 2026-05-07 00:37 | 29.42869 | -68.88006 | 37177 ft | 516 kts | 170° |
| 2026-05-07 00:38 | 29.35827 | -68.86381 | 37177 ft | 516 kts | 170° |
| 2026-05-07 00:38 | 29.28786 | -68.84759 | 37186 ft | 516 kts | 169° |
| 2026-05-07 00:39 | 29.21737 | -68.83137 | 37169 ft | 516 kts | 169° |
| 2026-05-07 00:39 | 29.14706 | -68.81520 | 37177 ft | 515 kts | 169° |
| 2026-05-07 00:40 | 29.07681 | -68.79908 | 37178 ft | 514 kts | 169° |
| 2026-05-07 00:40 | 29.00666 | -68.78300 | 37180 ft | 514 kts | 169° |
| 2026-05-07 00:41 | 28.93657 | -68.76696 | 37176 ft | 513 kts | 169° |
| 2026-05-07 00:41 | 28.86655 | -68.75095 | 37178 ft | 513 kts | 169° |
| 2026-05-07 00:42 | 28.79658 | -68.73498 | 37176 ft | 513 kts | 169° |
| 2026-05-07 00:42 | 28.72661 | -68.71901 | 37178 ft | 513 kts | 169° |
| 2026-05-07 00:43 | 28.65664 | -68.70305 | 37162 ft | 513 kts | 169° |
| 2026-05-07 00:43 | 28.58667 | -68.68710 | 37174 ft | 513 kts | 169° |
| 2026-05-07 00:44 | 28.51665 | -68.67117 | 37171 ft | 513 kts | 169° |
| 2026-05-07 00:44 | 28.44654 | -68.65524 | 37172 ft | 514 kts | 169° |
| 2026-05-07 00:45 | 28.37637 | -68.63932 | 37169 ft | 514 kts | 169° |
| 2026-05-07 00:45 | 28.30620 | -68.62342 | 37171 ft | 515 kts | 169° |
| 2026-05-07 00:46 | 28.23593 | -68.60752 | 37168 ft | 515 kts | 169° |
| 2026-05-07 00:46 | 28.16562 | -68.59163 | 37170 ft | 515 kts | 169° |
| 2026-05-07 00:47 | 28.09528 | -68.57576 | 37169 ft | 515 kts | 169° |
| 2026-05-07 00:47 | 28.02497 | -68.55991 | 37168 ft | 515 kts | 169° |
| 2026-05-07 00:48 | 27.95516 | -68.54419 | 37167 ft | 515 kts | 169° |
| 2026-05-07 00:48 | 27.88499 | -68.52844 | 37183 ft | 514 kts | 169° |
| 2026-05-07 00:49 | 27.81484 | -68.51275 | 37165 ft | 513 kts | 169° |
| 2026-05-07 00:49 | 27.74483 | -68.49710 | 37158 ft | 512 kts | 169° |
| 2026-05-07 00:50 | 27.67516 | -68.48154 | 37162 ft | 510 kts | 169° |
| 2026-05-07 00:50 | 27.60566 | -68.46603 | 37158 ft | 508 kts | 169° |
| 2026-05-07 00:51 | 27.53641 | -68.45060 | 37159 ft | 507 kts | 169° |
| 2026-05-07 00:51 | 27.46727 | -68.43522 | 37162 ft | 506 kts | 169° |
| 2026-05-07 00:52 | 27.39820 | -68.41987 | 37167 ft | 506 kts | 169° |
| 2026-05-07 00:52 | 27.32914 | -68.40454 | 37164 ft | 506 kts | 169° |
| 2026-05-07 00:53 | 27.26007 | -68.38923 | 37159 ft | 506 kts | 169° |
| 2026-05-07 00:53 | 27.19095 | -68.37393 | 37146 ft | 507 kts | 169° |
| 2026-05-07 00:54 | 27.12163 | -68.35860 | 37159 ft | 507 kts | 169° |
| 2026-05-07 00:54 | 27.05232 | -68.34329 | 37158 ft | 508 kts | 169° |
| 2026-05-07 00:55 | 26.98287 | -68.32798 | 37159 ft | 509 kts | 169° |
| 2026-05-07 00:55 | 26.91380 | -68.31276 | 37151 ft | 509 kts | 169° |
| 2026-05-07 00:56 | 26.84377 | -68.29736 | 37159 ft | 510 kts | 169° |
| 2026-05-07 00:56 | 26.77416 | -68.28206 | 37155 ft | 510 kts | 169° |
| 2026-05-07 00:57 | 26.70456 | -68.26679 | 37155 ft | 510 kts | 169° |
| 2026-05-07 00:57 | 26.63547 | -68.25164 | 37147 ft | 509 kts | 169° |
| 2026-05-07 00:58 | 26.56591 | -68.23642 | 37151 ft | 509 kts | 169° |
| 2026-05-07 00:58 | 26.49642 | -68.22123 | 37151 ft | 508 kts | 169° |
| 2026-05-07 00:59 | 26.39232 | -68.19850 | 37156 ft | 508 kts | 169° |
| 2026-05-07 01:00 | 26.32303 | -68.18339 | 37148 ft | 507 kts | 170° |
| 2026-05-07 01:00 | 26.25387 | -68.16833 | 37151 ft | 506 kts | 170° |
| 2026-05-07 01:01 | 26.18489 | -68.15334 | 37152 ft | 504 kts | 170° |
| 2026-05-07 01:01 | 26.11619 | -68.13842 | 37150 ft | 503 kts | 170° |
| 2026-05-07 01:02 | 26.04764 | -68.12355 | 37149 ft | 501 kts | 170° |
| 2026-05-07 01:02 | 25.97914 | -68.10871 | 37148 ft | 501 kts | 170° |
| 2026-05-07 01:03 | 25.91080 | -68.09392 | 37149 ft | 500 kts | 170° |
| 2026-05-07 01:03 | 25.84298 | -68.07926 | 37151 ft | 500 kts | 170° |
| 2026-05-07 01:04 | 25.77458 | -68.06449 | 37153 ft | 501 kts | 170° |
| 2026-05-07 01:04 | 25.70616 | -68.04974 | 37147 ft | 501 kts | 170° |
| 2026-05-07 01:05 | 25.63768 | -68.03499 | 37154 ft | 502 kts | 170° |
| 2026-05-07 01:05 | 25.56908 | -68.02022 | 37148 ft | 502 kts | 170° |
| 2026-05-07 01:06 | 25.50047 | -68.00548 | 37154 ft | 503 kts | 170° |
| 2026-05-07 01:06 | 25.43176 | -67.99073 | 37136 ft | 503 kts | 170° |
| 2026-05-07 01:07 | 25.36310 | -67.97601 | 37148 ft | 502 kts | 170° |
| 2026-05-07 01:07 | 25.29450 | -67.96132 | 37142 ft | 502 kts | 170° |
| 2026-05-07 01:08 | 25.22593 | -67.94665 | 37143 ft | 502 kts | 170° |
| 2026-05-07 01:08 | 25.15739 | -67.93200 | 37144 ft | 501 kts | 170° |
| 2026-05-07 01:09 | 25.08895 | -67.91738 | 37147 ft | 500 kts | 170° |
| 2026-05-07 01:09 | 25.02063 | -67.90281 | 37144 ft | 500 kts | 170° |
| 2026-05-07 01:10 | 24.95243 | -67.88828 | 37146 ft | 499 kts | 170° |
| 2026-05-07 01:10 | 24.88428 | -67.87379 | 37147 ft | 498 kts | 170° |
| 2026-05-07 01:11 | 24.81625 | -67.85933 | 37141 ft | 498 kts | 170° |
| 2026-05-07 01:11 | 24.74825 | -67.84489 | 37144 ft | 497 kts | 170° |
| 2026-05-07 01:12 | 24.68025 | -67.83047 | 37146 ft | 497 kts | 170° |
| 2026-05-07 01:12 | 24.61235 | -67.81609 | 37143 ft | 497 kts | 170° |
| 2026-05-07 01:13 | 24.54436 | -67.80170 | 37143 ft | 497 kts | 170° |
| 2026-05-07 01:13 | 24.47641 | -67.78734 | 37148 ft | 497 kts | 170° |
| 2026-05-07 01:14 | 24.40846 | -67.77299 | 37145 ft | 497 kts | 170° |
| 2026-05-07 01:14 | 24.34100 | -67.75876 | 37148 ft | 497 kts | 170° |
| 2026-05-07 01:15 | 24.27304 | -67.74444 | 37148 ft | 497 kts | 170° |
| 2026-05-07 01:15 | 24.20507 | -67.73014 | 37147 ft | 497 kts | 170° |
| 2026-05-07 01:16 | 24.13716 | -67.71587 | 37146 ft | 497 kts | 170° |
| 2026-05-07 01:16 | 24.06925 | -67.70161 | 37148 ft | 497 kts | 170° |
| 2026-05-07 01:17 | 24.00136 | -67.68737 | 37144 ft | 497 kts | 170° |
| 2026-05-07 01:17 | 23.93353 | -67.67316 | 37131 ft | 496 kts | 170° |
| 2026-05-07 01:18 | 23.86570 | -67.65896 | 37145 ft | 496 kts | 170° |
| 2026-05-07 01:18 | 23.79800 | -67.64481 | 37146 ft | 495 kts | 170° |
| 2026-05-07 01:19 | 23.73030 | -67.63067 | 37146 ft | 495 kts | 170° |
| 2026-05-07 01:19 | 23.66264 | -67.61655 | 37151 ft | 495 kts | 170° |
| 2026-05-07 01:20 | 23.59508 | -67.60247 | 37142 ft | 494 kts | 170° |
| 2026-05-07 01:20 | 23.52745 | -67.58839 | 37144 ft | 494 kts | 170° |
| 2026-05-07 01:21 | 23.45988 | -67.57433 | 37149 ft | 494 kts | 170° |
| 2026-05-07 01:21 | 23.39234 | -67.56030 | 37142 ft | 494 kts | 170° |
| 2026-05-07 01:22 | 23.32481 | -67.54628 | 37145 ft | 494 kts | 170° |
| 2026-05-07 01:22 | 23.25731 | -67.53228 | 37150 ft | 494 kts | 170° |
| 2026-05-07 01:23 | 23.18980 | -67.51830 | 37147 ft | 493 kts | 170° |
| 2026-05-07 01:23 | 23.13382 | -67.50672 | 37147 ft | 493 kts | 170° |
| 2026-05-07 01:24 | 23.06644 | -67.49279 | 37149 ft | 492 kts | 170° |
| 2026-05-07 01:24 | 22.99917 | -67.47889 | 37148 ft | 492 kts | 170° |
| 2026-05-07 01:25 | 22.93194 | -67.46502 | 37147 ft | 492 kts | 170° |
| 2026-05-07 01:25 | 22.86476 | -67.45117 | 37141 ft | 491 kts | 170° |
| 2026-05-07 01:26 | 22.79761 | -67.43735 | 37147 ft | 491 kts | 170° |
| 2026-05-07 01:26 | 22.73044 | -67.42353 | 37149 ft | 491 kts | 170° |
| 2026-05-07 01:27 | 22.66330 | -67.40973 | 37135 ft | 491 kts | 170° |
| 2026-05-07 01:27 | 22.59615 | -67.39595 | 37143 ft | 491 kts | 170° |
| 2026-05-07 01:28 | 22.52898 | -67.38217 | 37143 ft | 491 kts | 170° |
| 2026-05-07 01:28 | 22.46179 | -67.36840 | 37139 ft | 492 kts | 170° |
| 2026-05-07 01:29 | 22.39457 | -67.35464 | 37133 ft | 492 kts | 170° |
| 2026-05-07 01:29 | 22.32733 | -67.34089 | 37138 ft | 492 kts | 170° |
| 2026-05-07 01:30 | 22.26014 | -67.32716 | 37136 ft | 492 kts | 170° |
| 2026-05-07 01:30 | 22.19290 | -67.31346 | 37139 ft | 491 kts | 170° |
| 2026-05-07 01:31 | 22.12576 | -67.29987 | 37134 ft | 491 kts | 170° |
| 2026-05-07 01:31 | 22.05858 | -67.28629 | 37130 ft | 491 kts | 170° |
| 2026-05-07 01:32 | 21.99188 | -67.27280 | 37140 ft | 491 kts | 170° |
| 2026-05-07 01:32 | 21.92478 | -67.25924 | 37136 ft | 490 kts | 170° |
| 2026-05-07 01:33 | 21.85773 | -67.24570 | 37135 ft | 490 kts | 170° |
| 2026-05-07 01:33 | 21.79069 | -67.23218 | 37136 ft | 490 kts | 170° |
| 2026-05-07 01:34 | 21.72369 | -67.21868 | 37133 ft | 490 kts | 170° |
| 2026-05-07 01:34 | 21.65671 | -67.20519 | 37136 ft | 489 kts | 170° |
| 2026-05-07 01:35 | 21.58984 | -67.19193 | 37131 ft | 488 kts | 171° |
| 2026-05-07 01:35 | 21.52295 | -67.17952 | 37135 ft | 487 kts | 171° |
| 2026-05-07 01:36 | 21.45617 | -67.16722 | 37124 ft | 486 kts | 171° |
| 2026-05-07 01:36 | 21.38953 | -67.15483 | 37128 ft | 485 kts | 171° |
| 2026-05-07 01:37 | 21.32301 | -67.14243 | 37128 ft | 485 kts | 171° |
| 2026-05-07 01:37 | 21.25665 | -67.12978 | 37130 ft | 484 kts | 169° |
| 2026-05-07 01:38 | 21.19105 | -67.11327 | 37129 ft | 484 kts | 166° |
| 2026-05-07 01:38 | 21.12578 | -67.09528 | 37123 ft | 484 kts | 166° |
| 2026-05-07 01:39 | 21.06045 | -67.07757 | 37129 ft | 484 kts | 166° |
| 2026-05-07 01:39 | 20.99499 | -67.06022 | 37128 ft | 485 kts | 166° |
| 2026-05-07 01:40 | 20.92947 | -67.04301 | 37130 ft | 485 kts | 166° |
| 2026-05-07 01:40 | 20.86398 | -67.02582 | 37128 ft | 485 kts | 166° |
| 2026-05-07 01:41 | 20.79876 | -67.00870 | 37127 ft | 485 kts | 166° |
| 2026-05-07 01:41 | 20.73322 | -66.99150 | 37131 ft | 485 kts | 166° |
| 2026-05-07 01:42 | 20.66756 | -66.97428 | 37127 ft | 486 kts | 166° |
| 2026-05-07 01:42 | 20.60196 | -66.95709 | 37126 ft | 486 kts | 166° |
| 2026-05-07 01:43 | 20.53632 | -66.93991 | 37129 ft | 486 kts | 166° |
| 2026-05-07 01:43 | 20.47063 | -66.92273 | 37127 ft | 485 kts | 166° |
| 2026-05-07 01:44 | 20.40506 | -66.90560 | 37120 ft | 485 kts | 166° |
| 2026-05-07 01:44 | 20.33959 | -66.88850 | 37140 ft | 484 kts | 166° |
| 2026-05-07 01:45 | 20.27419 | -66.87145 | 37117 ft | 483 kts | 166° |
| 2026-05-07 01:45 | 20.20902 | -66.85447 | 37121 ft | 482 kts | 166° |
| 2026-05-07 01:46 | 20.14398 | -66.83752 | 37116 ft | 480 kts | 167° |
| 2026-05-07 01:46 | 20.07919 | -66.82067 | 37122 ft | 479 kts | 167° |
| 2026-05-07 01:47 | 20.01447 | -66.80384 | 37119 ft | 478 kts | 166° |
| 2026-05-07 01:47 | 19.95243 | -66.77890 | 37138 ft | 477 kts | 153° |
| 2026-05-07 01:48 | 19.89362 | -66.74709 | 37129 ft | 478 kts | 152° |
| 2026-05-07 01:48 | 19.83434 | -66.71497 | 37125 ft | 479 kts | 153° |
| 2026-05-07 01:49 | 19.77475 | -66.68327 | 37121 ft | 479 kts | 153° |
| 2026-05-07 01:49 | 19.71500 | -66.65179 | 37125 ft | 480 kts | 153° |
| 2026-05-07 01:50 | 19.65507 | -66.62027 | 37119 ft | 481 kts | 153° |
| 2026-05-07 01:50 | 19.59502 | -66.58870 | 37117 ft | 482 kts | 153° |
| 2026-05-07 01:51 | 19.53491 | -66.55708 | 37129 ft | 482 kts | 154° |
| 2026-05-07 01:51 | 19.47483 | -66.52553 | 37115 ft | 482 kts | 154° |
| 2026-05-07 01:52 | 19.41478 | -66.49402 | 37116 ft | 481 kts | 154° |
| 2026-05-07 01:52 | 19.35488 | -66.46261 | 37115 ft | 480 kts | 154° |
| 2026-05-07 01:53 | 19.29510 | -66.43128 | 37113 ft | 479 kts | 154° |
| 2026-05-07 01:53 | 19.23548 | -66.40007 | 37111 ft | 478 kts | 154° |
| 2026-05-07 01:54 | 19.17589 | -66.36889 | 37106 ft | 477 kts | 154° |
| 2026-05-07 01:54 | 19.11641 | -66.33780 | 37112 ft | 476 kts | 155° |
| 2026-05-07 01:55 | 19.05702 | -66.30676 | 37114 ft | 476 kts | 155° |
| 2026-05-07 01:55 | 18.99758 | -66.27573 | 37115 ft | 476 kts | 155° |
| 2026-05-07 01:56 | 18.93820 | -66.24472 | 37117 ft | 476 kts | 155° |
| 2026-05-07 01:56 | 18.87893 | -66.21320 | 37107 ft | 477 kts | 155° |
| 2026-05-07 01:57 | 18.81988 | -66.18140 | 37108 ft | 476 kts | 155° |
| 2026-05-07 01:57 | 18.76100 | -66.14933 | 37106 ft | 476 kts | 155° |
| 2026-05-07 01:58 | 18.70270 | -66.11747 | 37103 ft | 475 kts | 155° |
| 2026-05-07 01:58 | 18.64406 | -66.08537 | 37102 ft | 474 kts | 155° |
| 2026-05-07 01:59 | 18.58551 | -66.05332 | 37106 ft | 474 kts | 155° |
| 2026-05-07 01:59 | 18.52703 | -66.02133 | 37122 ft | 473 kts | 155° |
| 2026-05-07 01:59 | 18.49769 | -66.00523 | 36615 ft | 480 kts | 155° |
| 2026-05-07 02:00 | 18.46949 | -65.98606 | 35961 ft | 484 kts | 140° |
| 2026-05-07 02:00 | 18.44717 | -65.95976 | 35384 ft | 483 kts | 123° |
| 2026-05-07 02:00 | 18.43251 | -65.92816 | 34824 ft | 480 kts | 107° |
| 2026-05-07 02:00 | 18.42655 | -65.89377 | 34267 ft | 476 kts | 92° |
| 2026-05-07 02:01 | 18.42629 | -65.85907 | 33669 ft | 473 kts | 87° |
| 2026-05-07 02:01 | 18.42837 | -65.82460 | 33007 ft | 472 kts | 79° |
| 2026-05-07 02:01 | 18.43604 | -65.79094 | 32411 ft | 474 kts | 72° |
| 2026-05-07 02:01 | 18.44601 | -65.75771 | 31806 ft | 478 kts | 70° |
| 2026-05-07 02:02 | 18.45668 | -65.72443 | 31211 ft | 479 kts | 70° |
| 2026-05-07 02:02 | 18.46749 | -65.69142 | 30618 ft | 474 kts | 69° |
| 2026-05-07 02:02 | 18.47828 | -65.65876 | 30027 ft | 469 kts | 69° |
| 2026-05-07 02:02 | 18.48897 | -65.62653 | 29355 ft | 464 kts | 69° |
| 2026-05-07 02:03 | 18.49957 | -65.59466 | 28693 ft | 459 kts | 69° |
| 2026-05-07 02:03 | 18.51012 | -65.56313 | 28047 ft | 454 kts | 69° |
| 2026-05-07 02:03 | 18.52061 | -65.53191 | 27417 ft | 450 kts | 69° |
| 2026-05-07 02:03 | 18.53103 | -65.50098 | 26810 ft | 445 kts | 69° |
| 2026-05-07 02:04 | 18.54133 | -65.47041 | 26212 ft | 441 kts | 69° |
| 2026-05-07 02:04 | 18.55155 | -65.44010 | 25626 ft | 437 kts | 69° |
| 2026-05-07 02:04 | 18.56168 | -65.41002 | 25051 ft | 433 kts | 69° |
| 2026-05-07 02:04 | 18.57170 | -65.38024 | 24475 ft | 429 kts | 69° |
| 2026-05-07 02:05 | 18.58164 | -65.35070 | 23953 ft | 426 kts | 68° |
| 2026-05-07 02:05 | 18.59526 | -65.32340 | 23309 ft | 419 kts | 50° |
| 2026-05-07 02:05 | 18.61587 | -65.30233 | 22683 ft | 411 kts | 32° |
| 2026-05-07 02:05 | 18.64131 | -65.28944 | 22055 ft | 403 kts | 14° |
| 2026-05-07 02:06 | 18.66844 | -65.28593 | 21455 ft | 397 kts | 355° |
| 2026-05-07 02:06 | 18.69515 | -65.29189 | 20850 ft | 391 kts | 337° |
| 2026-05-07 02:06 | 18.71870 | -65.30656 | 20260 ft | 387 kts | 322° |
| 2026-05-07 02:06 | 18.73912 | -65.32430 | 19694 ft | 384 kts | 319° |
| 2026-05-07 02:07 | 18.75915 | -65.34283 | 19122 ft | 381 kts | 318° |
| 2026-05-07 02:07 | 18.79505 | -65.38295 | 17957 ft | 376 kts | 296° |
| 2026-05-07 02:07 | 18.80115 | -65.40953 | 17393 ft | 375 kts | 273° |
| 2026-05-07 02:08 | 18.79886 | -65.43678 | 16876 ft | 373 kts | 259° |
| 2026-05-07 02:08 | 18.79216 | -65.46314 | 16344 ft | 370 kts | 256° |
| 2026-05-07 02:08 | 18.78501 | -65.48913 | 15822 ft | 367 kts | 256° |
| 2026-05-07 02:08 | 18.77786 | -65.51488 | 15297 ft | 364 kts | 254° |
| 2026-05-07 02:09 | 18.77081 | -65.54045 | 14780 ft | 362 kts | 255° |
| 2026-05-07 02:09 | 18.76389 | -65.56591 | 14267 ft | 359 kts | 254° |
| 2026-05-07 02:09 | 18.75708 | -65.59115 | 13752 ft | 357 kts | 255° |
| 2026-05-07 02:09 | 18.75034 | -65.61632 | 13196 ft | 355 kts | 254° |
| 2026-05-07 02:10 | 18.74366 | -65.64134 | 12650 ft | 353 kts | 255° |
| 2026-05-07 02:10 | 18.73703 | -65.66625 | 12113 ft | 351 kts | 255° |
| 2026-05-07 02:10 | 18.73045 | -65.69096 | 11585 ft | 349 kts | 255° |
| 2026-05-07 02:10 | 18.72389 | -65.71561 | 11066 ft | 348 kts | 255° |
| 2026-05-07 02:11 | 18.71737 | -65.74010 | 10557 ft | 346 kts | 254° |
| 2026-05-07 02:11 | 18.71092 | -65.76434 | 10139 ft | 342 kts | 254° |
| 2026-05-07 02:11 | 18.70452 | -65.78833 | 9701 ft | 338 kts | 254° |
| 2026-05-07 02:11 | 18.69820 | -65.81204 | 9243 ft | 334 kts | 254° |
| 2026-05-07 02:12 | 18.69404 | -65.82763 | 8937 ft | 332 kts | 254° |
| 2026-05-07 02:12 | 18.68783 | -65.85090 | 8507 ft | 328 kts | 254° |
| 2026-05-07 02:12 | 18.68167 | -65.87399 | 8071 ft | 325 kts | 254° |
| 2026-05-07 02:12 | 18.67557 | -65.89681 | 7646 ft | 323 kts | 254° |
| 2026-05-07 02:13 | 18.66951 | -65.91950 | 7218 ft | 320 kts | 254° |
| 2026-05-07 02:13 | 18.66348 | -65.94202 | 6793 ft | 318 kts | 254° |
| 2026-05-07 02:13 | 18.65751 | -65.96437 | 6375 ft | 316 kts | 254° |
| 2026-05-07 02:13 | 18.65155 | -65.98660 | 5925 ft | 314 kts | 254° |
| 2026-05-07 02:14 | 18.64564 | -66.00867 | 5490 ft | 312 kts | 254° |
| 2026-05-07 02:14 | 18.63977 | -66.03060 | 5051 ft | 310 kts | 254° |
| 2026-05-07 02:14 | 18.63391 | -66.05245 | 4612 ft | 309 kts | 254° |
| 2026-05-07 02:14 | 18.62812 | -66.07406 | 4302 ft | 303 kts | 253° |
| 2026-05-07 02:15 | 18.62185 | -66.09486 | 4044 ft | 294 kts | 242° |
| 2026-05-07 02:15 | 18.61024 | -66.11215 | 3824 ft | 285 kts | 229° |
| 2026-05-07 02:15 | 18.59715 | -66.12760 | 3589 ft | 280 kts | 225° |
| 2026-05-07 02:15 | 18.58364 | -66.14207 | 3355 ft | 275 kts | 220° |
| 2026-05-07 02:16 | 18.56941 | -66.15518 | 3117 ft | 269 kts | 217° |
| 2026-05-07 02:16 | 18.55436 | -66.16665 | 2865 ft | 264 kts | 210° |
| 2026-05-07 02:16 | 18.53869 | -66.17624 | 2648 ft | 258 kts | 205° |
| 2026-05-07 02:16 | 18.52251 | -66.18409 | 2421 ft | 254 kts | 200° |
| 2026-05-07 02:17 | 18.50611 | -66.19025 | 2242 ft | 247 kts | 194° |
| 2026-05-07 02:17 | 18.49006 | -66.19468 | 2224 ft | 235 kts | 190° |
| 2026-05-07 02:17 | 18.47423 | -66.19788 | 2203 ft | 226 kts | 187° |
| 2026-05-07 02:17 | 18.45934 | -66.19882 | 2166 ft | 205 kts | 167° |
| 2026-05-07 02:18 | 18.44723 | -66.19241 | 2206 ft | 194 kts | 138° |
| 2026-05-07 02:18 | 18.43904 | -66.18144 | 2196 ft | 190 kts | 116° |
| 2026-05-07 02:18 | 18.43545 | -66.16815 | 2193 ft | 190 kts | 96° |
| 2026-05-07 02:18 | 18.43447 | -66.15429 | 2195 ft | 190 kts | 94° |
| 2026-05-07 02:19 | 18.43397 | -66.14039 | 2178 ft | 187 kts | 92° |
| 2026-05-07 02:19 | 18.43387 | -66.12696 | 2073 ft | 181 kts | 91° |
| 2026-05-07 02:19 | 18.43383 | -66.11355 | 1819 ft | 182 kts | 91° |
| 2026-05-07 02:19 | 18.43380 | -66.10029 | 1575 ft | 181 kts | 91° |
| 2026-05-07 02:20 | 18.43376 | -66.08729 | 1334 ft | 172 kts | 91° |
| 2026-05-07 02:20 | 18.43373 | -66.07551 | 1153 ft | 152 kts | 91° |
| 2026-05-07 02:20 | 18.43370 | -66.06480 | 966 ft | 144 kts | 92° |
| 2026-05-07 02:20 | 18.43362 | -66.05429 | 805 ft | 143 kts | 90° |
| 2026-05-07 02:21 | 18.43380 | -66.04390 | 627 ft | 139 kts | 90° |
| 2026-05-07 02:21 | 18.43377 | -66.03374 | 444 ft | 138 kts | 92° |
| 2026-05-07 02:21 | 18.43365 | -66.02379 | 246 ft | 136 kts | 90° |
| 2026-05-07 02:21 | 18.43359 | -66.01375 | 67 ft | 138 kts | 91° |
| 2026-05-07 02:22 | 18.43355 | -66.00423 | 17 ft | 117 kts | 91° |
| 2026-05-07 02:22 | 18.43354 | -65.99730 | 19 ft | 73 kts | 91° |
| 2026-05-07 02:22 | 18.43352 | -65.99358 | 18 ft | 29 kts | 90° |
| 2026-05-07 02:22 | 18.43352 | -65.99164 | 17 ft | 21 kts | 90° |
| 2026-05-07 02:23 | 18.43428 | -65.99075 | 18 ft | 18 kts | 342° |
| 2026-05-07 02:23 | 18.43461 | -65.99194 | 17 ft | 18 kts | 270° |
| 2026-05-07 02:23 | 18.43463 | -65.99324 | 17 ft | 18 kts | 270° |
| 2026-05-07 02:23 | 18.43463 | -65.99500 | 18 ft | 27 kts | 270° |
| 2026-05-07 02:24 | 18.43461 | -65.99690 | 18 ft | 25 kts | 270° |
| 2026-05-07 02:24 | 18.43461 | -65.99871 | 18 ft | 24 kts | 270° |
| 2026-05-07 02:24 | 18.43461 | -66.00040 | 18 ft | 23 kts | 270° |
| 2026-05-07 02:24 | 18.43462 | -66.00170 | 18 ft | 16 kts | 278° |
| 2026-05-07 02:25 | 18.43513 | -66.00224 | 18 ft | 9 kts | 353° |
| 2026-05-07 02:25 | 18.43571 | -66.00241 | 18 ft | 9 kts | 337° |
| 2026-05-07 02:25 | 18.43616 | -66.00246 | 18 ft | 4 kts | 5° |
| 2026-05-07 02:25 | 18.43626 | -66.00245 | 18 ft | 0 kts | 5° |